Time;durP1;ratioP1;P1;durP2;ratioP2;P2;SDS_P1;SDS_P2;PMS_P1;PMS_P2;Temp;Humidity;BMP_temperature;BMP_pressure;BME280_temperature;BME280_humidity;BME280_pressure;Samples;Min_cycle;Max_cycle;Signal;HPM_P1;HPM_P2
2024/01/06 00:00:21;;;;;;;182.27;176.63;;;;;;;;;;5094008;28;20059;-69
2024/01/06 00:02:47;;;;;;;184.07;178.35;;;;;;;;;;5093797;28;20052;-68
2024/01/06 00:05:14;;;;;;;179.20;173.60;;;;;;;;;;5094836;28;20051;-68
2024/01/06 00:07:40;;;;;;;173.55;168.13;;;;;;;;;;5092487;28;20094;-68
2024/01/06 00:10:07;;;;;;;179.88;174.27;;;;;;;;;;5093514;28;20101;-68
2024/01/06 00:12:33;;;;;;;166.80;161.77;;;;;;;;;;5093795;28;20051;-68
2024/01/06 00:15:00;;;;;;;161.02;156.20;;;;;;;;;;5093546;28;20093;-68
2024/01/06 00:17:28;;;;;;;186.23;180.57;;;;;;;;;;5093381;28;20040;-69
2024/01/06 00:19:54;;;;;;;160.68;155.75;;;;;;;;;;5093539;28;20105;-68
2024/01/06 00:22:21;;;;;;;160.60;155.73;;;;;;;;;;5093436;28;20056;-69
2024/01/06 00:24:48;;;;;;;154.57;149.77;;;;;;;;;;5091952;28;20048;-68
2024/01/06 00:27:16;;;;;;;150.60;145.77;;;;;;;;;;5093535;28;20044;-68
2024/01/06 00:29:42;;;;;;;144.75;139.93;;;;;;;;;;5093204;28;20052;-68
2024/01/06 00:32:09;;;;;;;157.40;152.23;;;;;;;;;;5092630;28;20090;-68
2024/01/06 00:34:36;;;;;;;149.27;144.57;;;;;;;;;;5095771;28;20196;-68
2024/01/06 00:37:03;;;;;;;155.23;150.20;;;;;;;;;;5093188;28;20494;-69
2024/01/06 00:39:29;;;;;;;96.38;92.93;;;;;;;;;;5092668;28;20561;-68
2024/01/06 00:41:56;;;;;;;146.00;141.38;;;;;;;;;;5093189;28;20052;-68
2024/01/06 00:44:22;;;;;;;139.98;135.25;;;;;;;;;;5093140;28;20101;-68
2024/01/06 00:46:49;;;;;;;160.40;155.25;;;;;;;;;;5092991;28;20105;-69
2024/01/06 00:49:15;;;;;;;149.00;143.95;;;;;;;;;;5097125;28;20048;-69
2024/01/06 00:51:43;;;;;;;119.22;115.15;;;;;;;;;;5092822;28;20490;-69
2024/01/06 00:54:10;;;;;;;161.68;156.45;;;;;;;;;;5092843;28;20044;-69
2024/01/06 00:56:36;;;;;;;147.00;142.30;;;;;;;;;;5092770;28;20188;-68
2024/01/06 00:59:02;;;;;;;;;;;;;;;;;;5093245;28;20098;-68
2024/01/06 01:01:29;;;;;;;152.00;147.10;;;;;;;;;;5092738;28;19920;-68
2024/01/06 01:03:55;;;;;;;155.63;150.75;;;;;;;;;;5103879;28;20759;-68
2024/01/06 01:06:22;;;;;;;139.43;134.80;;;;;;;;;;5093640;28;20457;-68
2024/01/06 01:08:49;;;;;;;143.23;138.68;;;;;;;;;;5092390;28;20052;-68
2024/01/06 01:11:16;;;;;;;107.20;103.57;;;;;;;;;;5092613;28;20464;-67
2024/01/06 01:13:42;;;;;;;;;;;;;;;;;;5092947;28;20468;-67
2024/01/06 01:16:08;;;;;;;;;;;;;;;;;;5092991;28;19981;-67
2024/01/06 01:18:35;;;;;;;;;;;;;;;;;;5092751;28;19924;-68
2024/01/06 01:21:01;;;;;;;;;;;;;;;;;;5092821;28;19927;-68
2024/01/06 01:23:27;;;;;;;122.03;118.15;;;;;;;;;;5092110;28;19923;-66
2024/01/06 01:25:56;;;;;;;144.82;140.38;;;;;;;;;;5092433;28;20120;-67
2024/01/06 01:28:22;;;;;;;150.52;145.88;;;;;;;;;;5092241;28;20096;-68
2024/01/06 01:30:50;;;;;;;141.82;137.45;;;;;;;;;;5092246;28;20056;-67
2024/01/06 01:33:16;;;;;;;102.70;99.25;;;;;;;;;;5092151;28;20060;-68
2024/01/06 01:35:42;;;;;;;144.75;140.07;;;;;;;;;;5099523;28;20108;-67
2024/01/06 01:38:09;;;;;;;161.57;156.57;;;;;;;;;;5098679;28;20044;-68
2024/01/06 01:40:35;;;;;;;143.45;138.88;;;;;;;;;;5108893;28;20082;-71
2024/01/06 01:43:03;;;;;;;137.57;133.20;;;;;;;;;;5071657;28;20098;-68
2024/01/06 01:45:30;;;;;;;;;;;;;;;;;;5072256;28;20101;-68
2024/01/06 01:47:56;;;;;;;;;;;;;;;;;;5072167;28;19924;-68
2024/01/06 01:50:23;;;;;;;;;;;;;;;;;;5071665;28;19981;-68
2024/01/06 01:52:49;;;;;;;85.43;82.53;;;;;;;;;;5070959;28;20374;-67
2024/01/06 01:55:16;;;;;;;126.80;122.60;;;;;;;;;;5094763;28;20100;-70
2024/01/06 01:57:42;;;;;;;139.50;135.15;;;;;;;;;;5111956;28;20055;-69
2024/01/06 02:00:11;;;;;;;134.77;130.60;;;;;;;;;;5112135;28;20560;-69
2024/01/06 02:02:39;;;;;;;128.93;124.82;;;;;;;;;;5111915;28;20043;-69
2024/01/06 02:05:05;;;;;;;70.93;68.38;;;;;;;;;;5112133;28;20703;-69
2024/01/06 02:07:32;;;;;;;122.25;118.32;;;;;;;;;;5112310;28;20047;-68
2024/01/06 02:09:58;;;;;;;128.52;124.40;;;;;;;;;;5111955;28;20043;-68
2024/01/06 02:12:25;;;;;;;109.85;106.25;;;;;;;;;;5094551;28;20048;-70
2024/01/06 02:14:51;;;;;;;78.82;76.13;;;;;;;;;;5091707;28;20441;-70
2024/01/06 02:17:19;;;;;;;124.43;120.32;;;;;;;;;;5091537;28;20056;-69
2024/01/06 02:19:46;;;;;;;131.38;126.95;;;;;;;;;;5091657;28;20059;-69
2024/01/06 02:22:14;;;;;;;128.48;124.38;;;;;;;;;;5091689;28;20047;-70
2024/01/06 02:24:40;;;;;;;114.45;110.78;;;;;;;;;;5091558;28;20185;-70
2024/01/06 02:27:06;;;;;;;126.07;122.07;;;;;;;;;;5090488;28;20105;-68
2024/01/06 02:29:33;;;;;;;117.80;113.97;;;;;;;;;;5091831;28;20052;-66
2024/01/06 02:31:59;;;;;;;129.65;125.40;;;;;;;;;;5092270;28;20105;-67
2024/01/06 02:34:26;;;;;;;121.28;117.25;;;;;;;;;;5091565;28;20048;-68
2024/01/06 02:36:52;;;;;;;125.55;121.55;;;;;;;;;;5091549;28;20052;-66
2024/01/06 02:39:20;;;;;;;86.45;83.53;;;;;;;;;;5094162;28;20449;-67
2024/01/06 02:41:47;;;;;;;123.38;119.38;;;;;;;;;;5102784;28;20052;-67
2024/01/06 02:44:14;;;;;;;112.85;108.95;;;;;;;;;;5090640;28;20043;-68
2024/01/06 02:46:40;;;;;;;111.00;107.35;;;;;;;;;;5091224;28;20153;-68
2024/01/06 02:49:07;;;;;;;115.03;111.22;;;;;;;;;;5091574;28;20097;-67
2024/01/06 02:51:33;;;;;;;122.30;118.40;;;;;;;;;;5091425;28;20044;-67
2024/01/06 02:53:59;;;;;;;120.40;116.60;;;;;;;;;;5107331;28;20471;-68
2024/01/06 02:56:27;;;;;;;113.47;109.70;;;;;;;;;;5104322;28;20040;-69
2024/01/06 02:58:54;;;;;;;122.88;119.05;;;;;;;;;;5090199;28;20052;-68
2024/01/06 03:01:20;;;;;;;114.30;110.65;;;;;;;;;;5091259;28;20056;-68
2024/01/06 03:03:47;;;;;;;105.60;102.15;;;;;;;;;;5094838;28;20113;-68
2024/01/06 03:06:13;;;;;;;94.63;91.20;;;;;;;;;;5095195;28;20047;-68
2024/01/06 03:08:40;;;;;;;100.43;97.10;;;;;;;;;;5094916;28;20056;-68
2024/01/06 03:11:06;;;;;;;107.07;103.57;;;;;;;;;;5097769;28;20122;-68
2024/01/06 03:13:34;;;;;;;112.93;109.32;;;;;;;;;;5101108;28;20044;-67
2024/01/06 03:16:03;;;;;;;103.13;99.82;;;;;;;;;;5094974;28;20134;-68
2024/01/06 03:18:29;;;;;;;111.00;107.45;;;;;;;;;;5075723;28;20457;-67
2024/01/06 03:20:56;;;;;;;65.90;63.70;;;;;;;;;;5074778;28;20044;-70
2024/01/06 03:23:22;;;;;;;89.68;86.68;;;;;;;;;;5074431;28;20044;-68
2024/01/06 03:25:48;;;;;;;;;;;;;;;;;;5074736;28;20044;-68
2024/01/06 03:28:15;;;;;;;;;;;;;;;;;;5078164;28;19928;-69
2024/01/06 03:30:41;;;;;;;;;;;;;;;;;;5115346;28;19923;-68
2024/01/06 03:33:09;;;;;;;101.50;98.13;;;;;;;;;;5114720;28;19949;-69
2024/01/06 03:35:35;;;;;;;;;;;;;;;;;;5098851;28;20048;-69
2024/01/06 03:38:01;;;;;;;;;;;;;;;;;;5098617;28;19923;-69
2024/01/06 03:40:28;;;;;;;101.60;98.30;;;;;;;;;;5114640;28;19965;-68
2024/01/06 03:42:54;;;;;;;;;;;;;;;;;;5114668;28;20497;-70
2024/01/06 03:45:20;;;;;;;;;;;;;;;;;;5093926;28;19924;-69
2024/01/06 03:47:46;;;;;;;;;;;;;;;;;;5100842;28;19927;-68
2024/01/06 03:50:14;;;;;;;109.03;105.53;;;;;;;;;;5103674;28;19924;-68
2024/01/06 03:52:41;;;;;;;111.50;107.85;;;;;;;;;;5094079;28;20044;-68
2024/01/06 03:55:08;;;;;;;127.80;123.75;;;;;;;;;;5093983;28;20048;-68
2024/01/06 03:57:34;;;;;;;142.52;138.13;;;;;;;;;;5093930;28;20090;-68
2024/01/06 04:00:00;;;;;;;133.18;129.05;;;;;;;;;;5093934;28;20044;-69
2024/01/06 04:02:27;;;;;;;138.98;134.68;;;;;;;;;;5093757;28;20052;-68
2024/01/06 04:04:53;;;;;;;137.80;133.45;;;;;;;;;;5093703;28;20052;-68
2024/01/06 04:07:21;;;;;;;127.93;123.88;;;;;;;;;;5093927;28;20109;-68
2024/01/06 04:09:48;;;;;;;143.38;138.95;;;;;;;;;;5093534;28;20054;-68
2024/01/06 04:12:14;;;;;;;130.27;126.10;;;;;;;;;;5093707;28;20074;-68
2024/01/06 04:14:41;;;;;;;127.57;123.38;;;;;;;;;;5092954;28;20055;-68
2024/01/06 04:17:07;;;;;;;130.05;126.00;;;;;;;;;;5093723;28;20071;-67
2024/01/06 04:19:34;;;;;;;134.13;129.93;;;;;;;;;;5093491;28;20051;-66
2024/01/06 04:22:00;;;;;;;142.23;137.73;;;;;;;;;;5107703;28;20073;-67
2024/01/06 04:24:28;;;;;;;144.93;140.23;;;;;;;;;;5113301;28;20039;-68
2024/01/06 04:26:55;;;;;;;146.20;141.60;;;;;;;;;;5099027;28;20048;-67
2024/01/06 04:29:21;;;;;;;147.43;142.77;;;;;;;;;;5093373;28;20056;-69
2024/01/06 04:31:47;;;;;;;136.75;132.27;;;;;;;;;;5107950;28;20055;-67
2024/01/06 04:34:14;;;;;;;145.73;141.15;;;;;;;;;;5113576;28;20544;-67
2024/01/06 04:36:40;;;;;;;129.55;125.40;;;;;;;;;;5107920;28;20823;-67
2024/01/06 04:39:07;;;;;;;145.95;141.38;;;;;;;;;;5093279;28;20047;-67
2024/01/06 04:41:35;;;;;;;136.00;131.65;;;;;;;;;;5091867;28;20043;-67
2024/01/06 04:44:01;;;;;;;98.13;94.85;;;;;;;;;;5093292;28;20388;-68
2024/01/06 04:46:28;;;;;;;116.80;112.97;;;;;;;;;;5092989;28;20048;-68
2024/01/06 04:48:54;;;;;;;123.85;119.85;;;;;;;;;;5092747;28;20491;-67
2024/01/06 04:51:21;;;;;;;122.93;118.93;;;;;;;;;;5093123;28;20059;-68
2024/01/06 04:53:47;;;;;;;109.45;105.80;;;;;;;;;;5092894;28;20051;-68
2024/01/06 04:56:14;;;;;;;96.88;93.20;;;;;;;;;;5092686;28;20052;-67
2024/01/06 04:58:41;;;;;;;117.95;114.15;;;;;;;;;;5091646;28;20044;-67
2024/01/06 05:01:08;;;;;;;97.13;93.90;;;;;;;;;;5101940;28;20096;-67
2024/01/06 05:03:35;;;;;;;100.45;97.13;;;;;;;;;;5112822;28;20126;-67
2024/01/06 05:06:01;;;;;;;;;;;;;;;;;;5113514;28;20052;-68
2024/01/06 05:08:30;;;;;;;95.57;92.28;;;;;;;;;;5112961;28;19919;-69
2024/01/06 05:10:57;;;;;;;92.35;89.25;;;;;;;;;;5111283;28;20050;-67
2024/01/06 05:13:23;;;;;;;;;;;;;;;;;;5113304;28;20051;-68
2024/01/06 05:15:49;;;;;;;;;;;;;;;;;;5108859;28;20450;-67
2024/01/06 05:18:17;;;;;;;83.70;80.65;;;;;;;;;;5112738;28;20386;-68
2024/01/06 05:20:44;;;;;;;87.80;84.88;;;;;;;;;;5112916;28;20093;-67
2024/01/06 05:23:10;;;;;;;85.78;82.90;;;;;;;;;;5112530;28;20047;-67
2024/01/06 05:25:37;;;;;;;85.57;82.75;;;;;;;;;;5111728;28;20043;-67
2024/01/06 05:28:03;;;;;;;91.22;87.78;;;;;;;;;;5098057;28;20074;-67
2024/01/06 05:30:30;;;;;;;81.72;78.88;;;;;;;;;;5090738;28;20093;-68
2024/01/06 05:32:56;;;;;;;62.17;60.03;;;;;;;;;;5092053;28;20520;-69
2024/01/06 05:35:24;;;;;;;93.45;90.45;;;;;;;;;;5092289;28;20104;-68
2024/01/06 05:37:51;;;;;;;84.90;82.00;;;;;;;;;;5092356;28;20487;-67
2024/01/06 05:40:17;;;;;;;79.60;76.90;;;;;;;;;;5092000;28;20121;-66
2024/01/06 05:42:43;;;;;;;82.80;79.75;;;;;;;;;;5091989;28;20052;-66
2024/01/06 05:45:11;;;;;;;96.10;92.95;;;;;;;;;;5104593;28;20093;-66
2024/01/06 05:47:38;;;;;;;63.10;60.97;;;;;;;;;;5112205;28;20444;-66
2024/01/06 05:50:05;;;;;;;82.40;79.68;;;;;;;;;;5092019;28;20109;-66
2024/01/06 05:52:32;;;;;;;93.47;90.32;;;;;;;;;;5092177;28;20105;-68
2024/01/06 05:54:59;;;;;;;53.35;51.35;;;;;;;;;;5091704;28;20448;-68
2024/01/06 05:57:25;;;;;;;78.97;76.15;;;;;;;;;;5091692;28;20109;-68
2024/01/06 05:59:52;;;;;;;84.13;81.25;;;;;;;;;;5091951;28;20048;-67
2024/01/06 06:02:18;;;;;;;91.53;88.43;;;;;;;;;;5092930;28;20123;-67
2024/01/06 06:04:45;;;;;;;87.22;84.32;;;;;;;;;;5090395;28;20048;-67
2024/01/06 06:07:11;;;;;;;101.82;98.47;;;;;;;;;;5092811;28;20502;-67
2024/01/06 06:09:40;;;;;;;87.88;84.82;;;;;;;;;;5091604;28;20056;-67
2024/01/06 06:12:06;;;;;;;103.13;99.70;;;;;;;;;;5091898;28;20058;-68
2024/01/06 06:14:33;;;;;;;102.15;98.75;;;;;;;;;;5091618;28;20052;-68
2024/01/06 06:16:59;;;;;;;103.10;99.50;;;;;;;;;;5091784;28;20044;-69
2024/01/06 06:19:26;;;;;;;64.53;62.13;;;;;;;;;;5090424;28;20746;-70
2024/01/06 06:21:53;;;;;;;87.38;84.13;;;;;;;;;;5095996;28;20108;-69
2024/01/06 06:24:19;;;;;;;;;;;;;;;;;;5112137;28;20044;-68
2024/01/06 06:26:45;;;;;;;;;;;;;;;;;;5107152;28;21215;-69
2024/01/06 06:29:11;;;;;;;;;;;;;;;;;;5091948;28;20374;-68
2024/01/06 06:31:39;;;;;;;58.60;56.30;;;;;;;;;;5092810;28;20263;-67
2024/01/06 06:34:06;;;;;;;69.90;66.90;;;;;;;;;;5091375;28;20048;-68
2024/01/06 06:36:32;;;;;;;56.17;53.97;;;;;;;;;;5100761;28;20476;-67
2024/01/06 06:38:59;;;;;;;91.50;88.22;;;;;;;;;;5115940;28;20047;-67
2024/01/06 06:41:25;;;;;;;104.68;101.03;;;;;;;;;;5115522;28;20071;-67
2024/01/06 06:43:52;;;;;;;95.20;91.63;;;;;;;;;;5101765;28;20563;-68
2024/01/06 06:46:18;;;;;;;116.57;111.65;;;;;;;;;;5095522;28;20093;-67
2024/01/06 06:48:46;;;;;;;104.70;100.43;;;;;;;;;;5095189;28;20043;-68
2024/01/06 06:51:13;;;;;;;111.38;107.47;;;;;;;;;;5102164;28;20434;-68
2024/01/06 06:53:39;;;;;;;108.75;105.03;;;;;;;;;;5115666;28;20168;-67
2024/01/06 06:56:06;;;;;;;107.60;103.75;;;;;;;;;;5115410;28;20055;-68
2024/01/06 06:58:33;;;;;;;106.25;102.45;;;;;;;;;;5115328;28;20083;-68
2024/01/06 07:00:59;;;;;;;98.90;95.40;;;;;;;;;;5094359;28;20131;-67
2024/01/06 07:03:26;;;;;;;72.82;70.28;;;;;;;;;;5094126;28;20432;-69
2024/01/06 07:05:54;;;;;;;111.65;107.75;;;;;;;;;;5098140;28;20054;-68
2024/01/06 07:08:21;;;;;;;109.38;105.40;;;;;;;;;;5095401;28;20052;-68
2024/01/06 07:10:47;;;;;;;115.32;111.25;;;;;;;;;;5094364;28;20047;-68
2024/01/06 07:13:14;;;;;;;119.00;114.90;;;;;;;;;;5093902;28;20054;-68
2024/01/06 07:15:41;;;;;;;89.38;86.15;;;;;;;;;;5093753;28;20441;-69
2024/01/06 07:18:07;;;;;;;115.22;111.35;;;;;;;;;;5095764;28;20052;-67
2024/01/06 07:20:34;;;;;;;115.22;111.35;;;;;;;;;;5094623;28;20048;-67
2024/01/06 07:23:03;;;;;;;105.78;102.35;;;;;;;;;;5093944;28;20055;-66
2024/01/06 07:25:30;;;;;;;112.57;108.05;;;;;;;;;;5094121;28;20052;-67
2024/01/06 07:27:56;;;;;;;;;;;;;;;;;;5098411;28;20058;-67
2024/01/06 07:30:22;;;;;;;115.97;111.75;;;;;;;;;;5114957;28;19973;-66
2024/01/06 07:32:50;;;;;;;130.23;125.72;;;;;;;;;;5114033;28;20085;-67
2024/01/06 07:35:17;;;;;;;132.48;127.72;;;;;;;;;;5108046;28;20044;-67
2024/01/06 07:37:44;;;;;;;;;;;;;;;;;;5108945;28;20043;-66
2024/01/06 07:40:16;;;;;;;135.07;130.15;;;;;;;;;;5108541;28;19974;-66
2024/01/06 07:42:42;;;;;;;146.18;140.98;;;;;;;;;;5094169;28;20044;-67
2024/01/06 07:45:09;;;;;;;143.93;139.07;;;;;;;;;;5092806;28;20056;-67
2024/01/06 07:47:35;;;;;;;147.20;141.77;;;;;;;;;;5091886;28;20040;-67
2024/01/06 07:50:03;;;;;;;156.82;151.45;;;;;;;;;;5081282;28;20106;-67
2024/01/06 07:52:32;;;;;;;141.07;136.40;;;;;;;;;;5092741;28;20072;-68
2024/01/06 07:54:59;;;;;;;162.38;157.10;;;;;;;;;;5093195;28;20051;-66
2024/01/06 07:57:27;;;;;;;157.93;152.90;;;;;;;;;;5093620;28;20468;-67
2024/01/06 07:59:53;;;;;;;154.57;149.48;;;;;;;;;;5092008;28;20057;-67
2024/01/06 08:02:20;;;;;;;167.80;162.35;;;;;;;;;;5093001;28;20044;-67
2024/01/06 08:04:46;;;;;;;164.07;158.90;;;;;;;;;;5093160;28;20113;-68
2024/01/06 08:07:13;;;;;;;177.70;171.98;;;;;;;;;;5096927;28;20391;-67
2024/01/06 08:09:39;;;;;;;176.40;170.85;;;;;;;;;;5113512;28;20048;-67
2024/01/06 08:12:07;;;;;;;178.88;173.10;;;;;;;;;;5113298;28;20055;-68
2024/01/06 08:14:34;;;;;;;179.05;172.95;;;;;;;;;;5113693;28;20097;-66
2024/01/06 08:17:01;;;;;;;125.72;121.28;;;;;;;;;;5093637;28;20387;-67
2024/01/06 08:19:29;;;;;;;169.50;163.93;;;;;;;;;;5093045;28;20048;-67
2024/01/06 08:21:56;;;;;;;169.00;163.45;;;;;;;;;;5093303;28;20055;-69
2024/01/06 08:24:22;;;;;;;181.38;175.70;;;;;;;;;;5105343;28;20089;-67
2024/01/06 08:26:49;;;;;;;177.48;171.65;;;;;;;;;;5082158;28;20039;-67
2024/01/06 08:29:16;;;;;;;177.48;171.98;;;;;;;;;;5076326;28;20678;-70
2024/01/06 08:31:44;;;;;;;182.57;177.05;;;;;;;;;;5087843;28;20050;-68
2024/01/06 08:34:10;;;;;;;193.65;187.85;;;;;;;;;;5089042;28;20044;-67
2024/01/06 08:36:37;;;;;;;206.80;200.68;;;;;;;;;;5094055;28;20097;-68
2024/01/06 08:39:03;;;;;;;194.77;188.98;;;;;;;;;;5086298;28;20607;-67
2024/01/06 08:41:30;;;;;;;199.43;193.68;;;;;;;;;;5091831;28;20482;-68
2024/01/06 08:43:56;;;;;;;205.20;199.25;;;;;;;;;;5093730;28;20097;-68
2024/01/06 08:46:23;;;;;;;208.55;202.63;;;;;;;;;;5092687;28;20051;-67
2024/01/06 08:48:51;;;;;;;227.57;221.20;;;;;;;;;;5092533;28;20059;-67
2024/01/06 08:51:17;;;;;;;179.45;174.07;;;;;;;;;;5092702;28;20440;-67
2024/01/06 08:53:44;;;;;;;225.90;219.60;;;;;;;;;;5089921;28;20043;-67
2024/01/06 08:56:10;;;;;;;217.77;211.32;;;;;;;;;;5084481;28;20052;-67
2024/01/06 08:58:37;;;;;;;232.48;226.02;;;;;;;;;;5096778;28;20097;-67
2024/01/06 09:01:03;;;;;;;253.27;246.43;;;;;;;;;;5091935;28;20048;-68
2024/01/06 09:03:30;;;;;;;241.07;234.43;;;;;;;;;;5088108;28;20105;-68
2024/01/06 09:05:58;;;;;;;269.75;262.52;;;;;;;;;;5079191;28;20056;-70
2024/01/06 09:08:25;;;;;;;268.83;261.63;;;;;;;;;;5092044;28;20087;-68
2024/01/06 09:10:55;;;;;;;254.38;247.45;;;;;;;;;;5084652;28;20083;-67
2024/01/06 09:13:22;;;;;;;288.42;280.38;;;;;;;;;;5089338;28;20040;-67
2024/01/06 09:15:48;;;;;;;298.70;290.95;;;;;;;;;;5088919;28;20080;-68
2024/01/06 09:18:15;;;;;;;323.55;311.08;;;;;;;;;;5088066;28;20097;-69
2024/01/06 09:20:41;;;;;;;;;;;;;;;;;;5095280;28;20090;-67
2024/01/06 09:23:10;;;;;;;281.98;274.60;;;;;;;;;;5091235;28;19920;-66
2024/01/06 09:25:36;;;;;;;296.80;289.05;;;;;;;;;;5096763;28;20056;-66
2024/01/06 09:28:03;;;;;;;269.33;262.05;;;;;;;;;;5097615;28;20109;-66
2024/01/06 09:30:29;;;;;;;275.55;267.88;;;;;;;;;;5095393;28;20100;-66
2024/01/06 09:32:56;;;;;;;264.90;257.70;;;;;;;;;;5112079;28;20112;-68
2024/01/06 09:35:23;;;;;;;261.75;254.73;;;;;;;;;;5090736;28;20498;-66
2024/01/06 09:37:49;;;;;;;263.13;256.10;;;;;;;;;;5083206;28;20048;-66
2024/01/06 09:40:21;;;;;;;251.50;244.45;;;;;;;;;;5088977;28;20049;-68
2024/01/06 09:42:48;;;;;;;259.75;252.65;;;;;;;;;;5091663;28;20051;-66
2024/01/06 09:45:14;;;;;;;237.93;231.02;;;;;;;;;;5091544;28;20176;-66
2024/01/06 09:47:42;;;;;;;244.38;237.57;;;;;;;;;;5089275;28;20068;-68
2024/01/06 09:50:09;;;;;;;250.70;243.63;;;;;;;;;;5099849;28;20044;-67
2024/01/06 09:52:40;;;;;;;230.73;224.27;;;;;;;;;;5093226;28;20067;-67
2024/01/06 09:55:11;;;;;;;238.60;232.05;;;;;;;;;;5091119;28;20083;-67
2024/01/06 09:57:39;;;;;;;256.65;249.52;;;;;;;;;;5088878;28;20109;-67
2024/01/06 10:00:08;;;;;;;243.95;237.07;;;;;;;;;;5090769;28;20040;-67
2024/01/06 10:02:34;;;;;;;217.02;210.82;;;;;;;;;;5071220;28;20088;-66
2024/01/06 10:05:01;;;;;;;223.23;217.02;;;;;;;;;;5074266;28;20106;-68
2024/01/06 10:07:27;;;;;;;217.85;211.55;;;;;;;;;;5070903;28;20102;-67
2024/01/06 10:09:55;;;;;;;218.88;212.75;;;;;;;;;;5071278;28;20048;-66
2024/01/06 10:12:23;;;;;;;214.40;208.23;;;;;;;;;;5085751;28;20071;-67
2024/01/06 10:14:51;;;;;;;225.13;218.80;;;;;;;;;;5090847;28;20052;-66
2024/01/06 10:17:19;;;;;;;230.73;224.23;;;;;;;;;;5090982;28;20101;-67
2024/01/06 10:19:45;;;;;;;220.95;214.73;;;;;;;;;;5091411;28;20075;-67
2024/01/06 10:22:12;;;;;;;210.85;204.82;;;;;;;;;;5087848;28;20114;-67
2024/01/06 10:24:38;;;;;;;225.30;219.07;;;;;;;;;;5082745;28;20049;-66
2024/01/06 10:27:05;;;;;;;228.60;222.07;;;;;;;;;;5090991;28;20048;-66
2024/01/06 10:29:32;;;;;;;210.82;204.85;;;;;;;;;;5083826;28;20505;-66
2024/01/06 10:32:00;;;;;;;253.35;246.55;;;;;;;;;;5099146;28;20044;-66
2024/01/06 10:34:26;;;;;;;253.52;246.63;;;;;;;;;;5090970;28;20048;-68
2024/01/06 10:36:53;;;;;;;231.23;224.73;;;;;;;;;;5086551;28;20056;-66
2024/01/06 10:39:20;;;;;;;252.20;245.27;;;;;;;;;;5082871;28;20101;-66
2024/01/06 10:41:47;;;;;;;267.13;260.02;;;;;;;;;;5090993;28;20062;-66
2024/01/06 10:44:13;;;;;;;252.48;245.70;;;;;;;;;;5090690;28;20052;-66
2024/01/06 10:46:40;;;;;;;245.93;239.20;;;;;;;;;;5086033;28;20044;-66
2024/01/06 10:49:10;;;;;;;236.30;229.65;;;;;;;;;;5073229;28;20059;-66
2024/01/06 10:51:38;;;;;;;250.00;243.20;;;;;;;;;;5073589;28;20048;-65
2024/01/06 10:54:05;;;;;;;250.82;243.98;;;;;;;;;;5077291;28;20043;-65
2024/01/06 10:56:37;;;;;;;246.43;239.43;;;;;;;;;;5075748;28;20052;-65
2024/01/06 10:59:04;;;;;;;234.15;227.43;;;;;;;;;;5079481;28;20121;-65
2024/01/06 11:01:30;;;;;;;236.20;229.65;;;;;;;;;;5090918;28;20044;-66
2024/01/06 11:03:57;;;;;;;231.25;224.77;;;;;;;;;;5105299;28;20722;-66
2024/01/06 11:06:25;;;;;;;215.13;209.10;;;;;;;;;;5111065;28;20048;-65
2024/01/06 11:08:54;;;;;;;227.45;221.07;;;;;;;;;;5092587;28;20052;-66
2024/01/06 11:11:20;;;;;;;229.13;222.50;;;;;;;;;;5090898;28;20052;-65
2024/01/06 11:13:47;;;;;;;225.57;219.18;;;;;;;;;;5084189;28;20052;-65
2024/01/06 11:16:33;;;;;;;223.32;216.95;;;;;;;;;;5089242;28;20071;-65
2024/01/06 11:19:00;;;;;;;216.27;209.95;;;;;;;;;;5109460;28;20077;-65
2024/01/06 11:21:29;;;;;;;208.48;202.48;;;;;;;;;;5096545;28;20059;-66
2024/01/06 11:24:14;;;;;;;207.20;201.23;;;;;;;;;;5103639;28;20047;-67
2024/01/06 11:26:42;;;;;;;213.90;207.90;;;;;;;;;;5114774;28;20092;-65
2024/01/06 11:29:10;;;;;;;221.50;215.35;;;;;;;;;;5114395;28;20054;-65
2024/01/06 11:31:37;;;;;;;205.05;199.05;;;;;;;;;;5102549;28;20048;-66
2024/01/06 11:34:13;;;;;;;217.30;211.13;;;;;;;;;;5086733;28;20101;-65
2024/01/06 11:36:41;;;;;;;207.27;201.40;;;;;;;;;;5096743;28;20051;-65
2024/01/06 11:39:07;;;;;;;196.95;190.98;;;;;;;;;;5094070;28;20102;-65
2024/01/06 11:41:49;;;;;;;210.35;204.40;;;;;;;;;;5102972;28;20093;-66
2024/01/06 11:44:18;;;;;;;198.10;192.45;;;;;;;;;;5085770;28;20044;-65
2024/01/06 11:46:46;;;;;;;216.18;210.13;;;;;;;;;;5107524;28;20044;-65
2024/01/06 11:49:13;;;;;;;216.63;210.55;;;;;;;;;;5104298;28;20051;-65
2024/01/06 11:51:41;;;;;;;196.00;190.25;;;;;;;;;;5090486;28;20059;-66
2024/01/06 11:54:07;;;;;;;195.55;189.75;;;;;;;;;;5081272;28;20049;-66
2024/01/06 11:56:34;;;;;;;225.20;218.85;;;;;;;;;;5094704;28;20044;-66
2024/01/06 11:59:00;;;;;;;153.73;148.90;;;;;;;;;;5089898;28;20544;-66
2024/01/06 12:01:27;;;;;;;229.70;223.18;;;;;;;;;;5078392;28;20088;-66
2024/01/06 12:03:54;;;;;;;207.95;201.90;;;;;;;;;;5093147;28;20036;-66
2024/01/06 12:06:21;;;;;;;213.15;207.13;;;;;;;;;;5085517;28;20057;-66
2024/01/06 12:08:49;;;;;;;197.13;191.40;;;;;;;;;;5093725;28;20044;-65
2024/01/06 12:11:18;;;;;;;206.00;200.18;;;;;;;;;;5087629;28;20036;-65
2024/01/06 12:13:45;;;;;;;201.95;196.15;;;;;;;;;;5086905;28;20101;-65
2024/01/06 12:16:11;;;;;;;205.85;199.98;;;;;;;;;;5085642;28;20044;-65
2024/01/06 12:18:38;;;;;;;153.50;148.30;;;;;;;;;;5086093;28;20457;-66
2024/01/06 12:21:05;;;;;;;228.15;221.88;;;;;;;;;;5084127;28;20497;-65
2024/01/06 12:23:31;;;;;;;217.32;211.15;;;;;;;;;;5084048;28;20490;-67
2024/01/06 12:26:01;;;;;;;210.68;204.68;;;;;;;;;;5081767;28;20129;-66
2024/01/06 12:28:28;;;;;;;208.68;202.68;;;;;;;;;;5072775;28;20098;-65
2024/01/06 12:30:54;;;;;;;210.27;204.10;;;;;;;;;;5088895;28;20048;-65
2024/01/06 12:33:21;;;;;;;208.30;202.40;;;;;;;;;;5093000;28;20043;-65
2024/01/06 12:35:48;;;;;;;208.48;202.45;;;;;;;;;;5092705;28;20052;-66
2024/01/06 12:38:14;;;;;;;206.45;200.50;;;;;;;;;;5087988;28;20051;-66
2024/01/06 12:40:41;;;;;;;207.18;201.02;;;;;;;;;;5100485;28;20117;-66
2024/01/06 12:43:08;;;;;;;203.77;197.70;;;;;;;;;;5094630;28;20752;-66
2024/01/06 12:45:35;;;;;;;200.30;194.40;;;;;;;;;;5087517;28;20040;-65
2024/01/06 12:48:01;;;;;;;202.40;196.50;;;;;;;;;;5092624;28;20399;-65
2024/01/06 12:50:28;;;;;;;202.05;195.93;;;;;;;;;;5092771;28;20097;-65
2024/01/06 12:52:54;;;;;;;202.05;196.25;;;;;;;;;;5080446;28;20083;-65
2024/01/06 12:55:21;;;;;;;196.55;190.90;;;;;;;;;;5079735;28;20403;-66
2024/01/06 12:57:47;;;;;;;199.27;193.40;;;;;;;;;;5088917;28;20064;-65
2024/01/06 13:00:16;;;;;;;208.38;202.50;;;;;;;;;;5082586;28;20464;-65
2024/01/06 13:02:42;;;;;;;211.18;205.05;;;;;;;;;;5092310;28;20044;-65
2024/01/06 13:05:09;;;;;;;192.52;186.77;;;;;;;;;;5083833;28;20052;-66
2024/01/06 13:07:36;;;;;;;203.48;197.65;;;;;;;;;;5088236;28;20481;-65
2024/01/06 13:10:03;;;;;;;181.93;176.43;;;;;;;;;;5087963;28;20090;-65
2024/01/06 13:12:30;;;;;;;183.98;178.35;;;;;;;;;;5092062;28;20106;-65
2024/01/06 13:14:56;;;;;;;194.00;188.43;;;;;;;;;;5098379;28;20048;-65
2024/01/06 13:17:24;;;;;;;196.70;190.90;;;;;;;;;;5092057;28;20059;-65
2024/01/06 13:19:51;;;;;;;196.30;190.68;;;;;;;;;;5086753;28;20156;-66
2024/01/06 13:22:20;;;;;;;194.05;188.32;;;;;;;;;;5074739;28;20045;-65
2024/01/06 13:24:47;;;;;;;204.20;198.23;;;;;;;;;;5086144;28;20509;-66
2024/01/06 13:27:13;;;;;;;183.88;178.45;;;;;;;;;;5086344;28;20084;-65
2024/01/06 13:29:41;;;;;;;139.77;135.32;;;;;;;;;;5086894;28;20427;-65
2024/01/06 13:32:07;;;;;;;179.60;174.00;;;;;;;;;;5088854;28;20048;-65
2024/01/06 13:34:35;;;;;;;183.10;177.55;;;;;;;;;;5082501;28;20098;-65
2024/01/06 13:37:02;;;;;;;177.07;171.80;;;;;;;;;;5089912;28;20051;-65
2024/01/06 13:39:28;;;;;;;182.13;176.75;;;;;;;;;;5090340;28;20048;-66
2024/01/06 13:41:55;;;;;;;171.88;166.77;;;;;;;;;;5091669;28;20143;-67
2024/01/06 13:44:22;;;;;;;176.25;170.60;;;;;;;;;;5085201;28;20048;-65
2024/01/06 13:46:50;;;;;;;196.68;190.90;;;;;;;;;;5075887;28;20050;-65
2024/01/06 13:49:17;;;;;;;200.30;194.30;;;;;;;;;;5090299;28;20048;-65
2024/01/06 13:51:45;;;;;;;177.57;172.32;;;;;;;;;;5090538;28;20087;-65
2024/01/06 13:54:12;;;;;;;136.55;132.23;;;;;;;;;;5091711;28;20457;-66
2024/01/06 13:56:38;;;;;;;183.85;178.25;;;;;;;;;;5081778;28;20057;-65
2024/01/06 13:59:05;;;;;;;189.52;183.82;;;;;;;;;;5080058;28;20048;-66
2024/01/06 14:01:31;;;;;;;190.93;185.25;;;;;;;;;;5086594;28;20088;-66
2024/01/06 14:03:58;;;;;;;181.95;176.48;;;;;;;;;;5079318;28;20048;-65